Time;durP1;ratioP1;P1;durP2;ratioP2;P2;SDS_P1;SDS_P2;PMS_P1;PMS_P2;Temp;Humidity;BMP_temperature;BMP_pressure;BME280_temperature;BME280_humidity;BME280_pressure;Samples;Min_cycle;Max_cycle;Signal;HPM_P1;HPM_P2
2022/01/11 00:01:27;;;;;;;69.50;37.28;;;;;;;1.49;74.43;101769.67;2788779;85;21567;-73
2022/01/11 00:05:34;;;;;;;57.67;34.05;;;;;;;1.51;74.46;101775.75;2788940;85;21048;-74
2022/01/11 00:09:39;;;;;;;55.60;36.65;;;;;;;1.46;73.81;101777.14;2788295;85;21060;-73
2022/01/11 00:13:40;;;;;;;60.48;34.38;;;;;;;1.42;74.25;101779.42;2788031;85;21052;-73
2022/01/11 00:17:41;;;;;;;57.88;35.08;;;;;;;1.41;74.88;101782.94;2788503;85;21071;-71
2022/01/11 00:21:48;;;;;;;69.35;36.17;;;;;;;1.40;74.20;101775.97;2788800;85;21079;-73
2022/01/11 00:25:53;;;;;;;65.47;37.98;;;;;;;1.38;73.64;101789.09;2788396;85;21060;-72
2022/01/11 00:29:57;;;;;;;59.70;38.78;;;;;;;1.42;74.36;101782.89;2788506;85;21032;-72
2022/01/11 00:34:00;;;;;;;59.50;34.45;;;;;;;1.50;74.45;101791.92;2788395;85;21043;-73
2022/01/11 00:38:01;;;;;;;63.50;37.83;;;;;;;1.54;73.92;101794.05;2788993;85;21024;-73
2022/01/11 00:42:04;;;;;;;60.95;37.40;;;;;;;1.60;74.09;101800.47;2788758;85;20997;-72
2022/01/11 00:46:07;;;;;;;65.97;39.65;;;;;;;1.67;74.07;101804.72;2788460;85;21004;-73
2022/01/11 00:50:09;;;;;;;60.83;35.88;;;;;;;1.74;73.98;101798.02;2788642;85;21107;-72
2022/01/11 00:54:11;;;;;;;65.22;37.00;;;;;;;1.79;73.87;101814.09;2788744;85;21031;-71
2022/01/11 00:58:15;;;;;;;57.13;35.08;;;;;;;1.88;73.95;101819.60;2788963;85;21067;-72
2022/01/11 01:02:16;;;;;;;71.30;34.30;;;;;;;1.94;72.93;101819.90;2788919;85;21043;-71
2022/01/11 01:06:18;;;;;;;67.78;36.48;;;;;;;1.93;72.64;101829.55;2788899;85;21043;-73
2022/01/11 01:10:29;;;;;;;60.65;38.83;;;;;;;1.98;73.17;101836.02;2788871;85;21087;-73
2022/01/11 01:14:30;;;;;;;67.55;39.30;;;;;;;1.95;73.78;101840.00;2788967;85;21044;-73
2022/01/11 01:18:33;;;;;;;54.60;34.67;;;;;;;1.95;73.49;101842.63;2789076;85;21509;-73
2022/01/11 01:22:35;;;;;;;50.25;31.90;;;;;;;1.99;72.71;101836.44;2789222;85;20973;-72
2022/01/11 01:26:37;;;;;;;49.40;30.97;;;;;;;1.92;71.46;101826.94;2788472;85;21521;-72
2022/01/11 01:30:39;;;;;;;54.00;32.50;;;;;;;1.88;70.91;101822.23;2788873;85;21052;-73
2022/01/11 01:34:41;;;;;;;53.92;31.68;;;;;;;1.87;71.38;101830.12;2788991;85;21004;-73
2022/01/11 01:38:42;;;;;;;46.68;27.27;;;;;;;1.83;70.65;101838.06;2802666;84;21054;-72
2022/01/11 01:42:47;;;;;;;49.23;31.62;;;;;;;1.84;70.27;101843.72;2820362;84;20996;-72
2022/01/11 01:46:49;;;;;;;47.03;29.32;;;;;;;1.85;70.72;101846.77;2788688;85;20984;-73
2022/01/11 01:50:51;;;;;;;54.75;31.35;;;;;;;1.85;70.79;101841.95;2788649;85;21048;-73
2022/01/11 01:54:53;;;;;;;46.37;27.13;;;;;;;1.89;70.33;101844.07;2788974;85;21000;-73
2022/01/11 01:58:56;;;;;;;36.65;23.62;;;;;;;1.89;69.16;101844.95;2788985;85;21071;-71
2022/01/11 02:03:08;;;;;;;46.35;27.02;;;;;;;1.92;69.51;101834.81;2789053;85;21016;-71
2022/01/11 02:07:10;;;;;;;50.60;27.15;;;;;;;1.97;69.50;101840.86;2789143;85;21012;-73
2022/01/11 02:11:16;;;;;;;49.45;27.80;;;;;;;2.05;69.88;101845.48;2789375;85;21079;-71
2022/01/11 02:15:17;;;;;;;36.68;26.60;;;;;;;2.13;69.50;101838.30;2788632;85;21020;-72
2022/01/11 02:19:19;;;;;;;49.05;27.45;;;;;;;2.19;69.52;101848.27;2789410;85;21044;-73
2022/01/11 02:23:21;;;;;;;44.50;25.97;;;;;;;2.18;69.37;101843.92;2789560;84;21008;-73
2022/01/11 02:27:25;;;;;;;33.35;22.58;;;;;;;2.19;69.32;101850.90;2779949;85;21032;-73
2022/01/11 02:31:27;;;;;;;43.60;24.60;;;;;;;2.14;69.33;101846.59;2805606;85;21062;-73
2022/01/11 02:35:29;;;;;;;50.03;27.70;;;;;;;2.12;69.29;101848.38;2805576;83;21059;-68
2022/01/11 02:39:31;;;;;;;63.08;32.45;;;;;;;2.08;69.21;101854.61;2805966;85;21011;-73
2022/01/11 02:43:33;;;;;;;54.75;30.90;;;;;;;2.01;69.33;101850.39;2805932;85;21082;-72
2022/01/11 02:47:34;;;;;;;42.27;27.55;;;;;;;1.98;69.70;101853.09;2805765;84;20995;-72
2022/01/11 02:51:36;;;;;;;46.02;28.02;;;;;;;1.95;69.89;101856.63;2817315;83;21019;-74
2022/01/11 02:55:39;;;;;;;44.13;28.50;;;;;;;1.90;69.95;101858.92;2834422;83;21067;-72
2022/01/11 02:59:42;;;;;;;47.03;27.37;;;;;;;1.84;70.30;101868.66;2840073;82;21027;-73
2022/01/11 03:03:44;;;;;;;62.15;33.58;;;;;;;1.79;70.61;101867.89;2856077;83;21039;-73
2022/01/11 03:07:46;;;;;;;49.77;32.73;;;;;;;1.70;70.66;101868.93;2855998;83;21051;-72
2022/01/11 03:11:47;;;;;;;47.38;26.85;;;;;;;1.53;70.44;101869.23;2855903;83;21503;-73
2022/01/11 03:15:52;;;;;;;60.03;33.42;;;;;;;1.28;71.00;101867.06;2856054;83;21059;-72
2022/01/11 03:19:54;;;;;;;54.50;33.05;;;;;;;1.06;71.28;101877.49;2855798;83;21066;-72
2022/01/11 03:23:57;;;;;;;57.55;30.77;;;;;;;0.88;71.90;101874.70;2855530;83;21181;-73
2022/01/11 03:27:58;;;;;;;57.33;29.95;;;;;;;0.73;72.43;101887.17;2855467;83;20972;-72
2022/01/11 03:32:00;;;;;;;43.13;29.12;;;;;;;0.61;72.97;101888.22;2855264;83;21094;-71
2022/01/11 03:36:02;;;;;;;39.75;26.68;;;;;;;0.51;73.16;101895.77;2854446;83;21023;-73
2022/01/11 03:40:08;;;;;;;57.93;32.50;;;;;;;0.37;73.69;101895.97;2855431;83;20995;-73
2022/01/11 03:44:09;;;;;;;62.20;32.75;;;;;;;0.21;74.64;101898.78;2855418;83;21007;-73
2022/01/11 03:48:13;;;;;;;46.95;28.57;;;;;;;0.10;75.72;101907.22;2854843;82;21054;-72
2022/01/11 03:52:14;;;;;;;49.70;29.42;;;;;;;-0.01;76.19;101903.39;2854671;83;21051;-73
2022/01/11 03:56:23;;;;;;;48.33;27.95;;;;;;;-0.11;76.82;101913.55;2854838;83;21062;-70
2022/01/11 04:00:25;;;;;;;53.30;32.17;;;;;;;-0.19;76.87;101911.02;2854500;83;21015;-71
2022/01/11 04:04:27;;;;;;;54.30;34.35;;;;;;;-0.25;77.56;101918.48;2844465;82;21595;-69
2022/01/11 04:08:28;;;;;;;56.28;32.67;;;;;;;-0.25;77.49;101917.63;2854785;82;21055;-69
2022/01/11 04:12:30;;;;;;;58.17;32.10;;;;;;;-0.26;77.42;101916.75;2843763;83;21007;-71
2022/01/11 04:16:32;;;;;;;51.73;33.70;;;;;;;-0.25;77.10;101922.41;2851108;83;21078;-71
2022/01/11 04:20:34;;;;;;;49.73;29.18;;;;;;;-0.26;77.16;101911.52;2804558;85;21004;-71
2022/01/11 04:24:35;;;;;;;51.37;29.57;;;;;;;-0.25;77.03;101913.71;2804548;84;21020;-71
2022/01/11 04:28:37;;;;;;;61.85;32.58;;;;;;;-0.27;76.93;101915.02;2804272;85;21051;-71
2022/01/11 04:32:39;;;;;;;66.37;40.15;;;;;;;-0.33;76.78;101905.94;2804481;85;21012;-71
2022/01/11 04:36:41;;;;;;;70.95;39.92;;;;;;;-0.25;76.40;101909.33;2803843;85;21579;-71
2022/01/11 04:40:42;;;;;;;75.78;50.55;;;;;;;-0.16;76.43;101910.98;2804763;85;21035;-71
2022/01/11 04:44:44;;;;;;;80.20;45.40;;;;;;;-0.11;76.13;101903.09;2804529;85;21075;-72
2022/01/11 04:48:47;;;;;;;54.77;33.42;;;;;;;0.05;76.18;101909.88;2804522;85;20996;-72
2022/01/11 04:52:48;;;;;;;56.53;32.98;;;;;;;0.07;75.74;101922.51;2804797;84;21039;-71
2022/01/11 04:56:50;;;;;;;61.42;35.20;;;;;;;0.03;75.41;101920.81;2804628;83;21020;-71
2022/01/11 05:00:52;;;;;;;61.95;38.23;;;;;;;-0.07;75.40;101916.55;2809793;83;21000;-72
2022/01/11 05:04:53;;;;;;;69.25;39.58;;;;;;;0.00;75.36;101926.09;2814870;83;21028;-73
2022/01/11 05:08:55;;;;;;;66.30;38.58;;;;;;;-0.01;75.37;101930.44;2854813;83;21003;-71
2022/01/11 05:12:57;;;;;;;65.30;39.73;;;;;;;-0.04;75.41;101934.83;2854349;83;20999;-72
2022/01/11 05:16:59;;;;;;;68.85;37.38;;;;;;;-0.09;75.40;101935.33;2820374;83;21031;-72
2022/01/11 05:21:00;;;;;;;80.50;41.40;;;;;;;-0.09;75.40;101935.33;2824231;83;21052;-70
2022/01/11 05:25:03;;;;;;;68.72;42.75;;;;;;;-0.08;75.40;101942.30;2839767;83;21631;-71
2022/01/11 05:29:06;;;;;;;79.82;42.38;;;;;;;0.04;74.98;101951.33;2830341;84;21012;-71
2022/01/11 05:33:08;;;;;;;51.02;33.35;;;;;;;0.04;74.98;101951.33;2794454;84;21040;-72
2022/01/11 05:37:10;;;;;;;75.60;42.75;;;;;;;0.04;74.41;101953.06;2818542;84;21062;-72
2022/01/11 05:41:11;;;;;;;101.87;56.60;;;;;;;0.09;74.11;101954.75;2826888;84;21035;-72
2022/01/11 05:45:13;;;;;;;101.20;48.05;;;;;;;0.06;73.73;101963.95;2837817;83;20989;-71
2022/01/11 05:49:15;;;;;;;85.03;50.30;;;;;;;0.03;73.46;101953.52;2839042;83;20995;-71
2022/01/11 05:53:17;;;;;;;74.12;42.20;;;;;;;-0.01;73.20;101959.64;2839125;82;21382;-72
2022/01/11 05:57:19;;;;;;;67.53;38.23;;;;;;;0.02;73.54;101975.34;2839216;84;21043;-72
2022/01/11 06:01:23;;;;;;;67.62;39.65;;;;;;;-0.01;73.68;101968.80;2839633;84;20995;-71
2022/01/11 06:05:25;;;;;;;62.83;38.55;;;;;;;-0.05;73.42;101985.42;2839107;83;21003;-72
2022/01/11 06:09:28;;;;;;;58.58;36.60;;;;;;;-0.16;73.92;101991.65;2839349;83;21000;-71
2022/01/11 06:13:29;;;;;;;72.97;36.20;;;;;;;-0.22;74.23;101989.06;2839367;84;21031;-71
2022/01/11 06:17:31;;;;;;;70.10;40.95;;;;;;;-0.21;73.94;102009.11;2839023;83;21004;-71
2022/01/11 06:21:33;;;;;;;67.75;41.68;;;;;;;-0.26;74.01;101995.67;2839145;83;21062;-72
2022/01/11 06:25:35;;;;;;;77.15;42.35;;;;;;;-0.35;73.94;102007.08;2843948;83;21024;-71
2022/01/11 06:29:37;;;;;;;70.28;43.35;;;;;;;-0.42;74.24;102013.22;2855759;82;21012;-72
2022/01/11 06:33:40;;;;;;;81.15;43.35;;;;;;;-0.56;74.58;102021.18;2855565;83;21043;-72
2022/01/11 06:37:43;;;;;;;80.17;45.67;;;;;;;-0.76;74.82;102017.84;2855573;83;21047;-72
2022/01/11 06:41:45;;;;;;;87.27;48.08;;;;;;;-0.80;75.04;102025.70;2855730;83;20995;-72
2022/01/11 06:45:46;;;;;;;70.50;48.68;;;;;;;-0.91;75.68;102036.22;2855190;83;21043;-72
2022/01/11 06:49:48;;;;;;;90.12;49.88;;;;;;;-1.08;76.18;102034.56;2855430;83;21078;-72
2022/01/11 06:53:50;;;;;;;94.60;52.67;;;;;;;-1.16;76.40;102027.22;2855503;83;21004;-72
2022/01/11 06:57:52;;;;;;;93.03;51.60;;;;;;;-1.12;76.46;102043.30;2855219;83;21378;-72
2022/01/11 07:01:53;;;;;;;72.08;46.20;;;;;;;-1.12;76.46;102043.30;2855489;83;21011;-72
2022/01/11 07:05:55;;;;;;;72.85;46.55;;;;;;;-1.07;76.28;102041.98;2855548;83;21071;-72
2022/01/11 07:09:57;;;;;;;88.25;49.23;;;;;;;-1.07;75.62;102039.36;2855056;83;21007;-72
2022/01/11 07:18:57;;;;;;;71.55;40.52;;;;;;;-1.09;75.31;102041.97;2855214;83;21051;-72
2022/01/11 07:22:59;;;;;;;76.10;43.52;;;;;;;-0.93;75.41;102068.02;2855696;83;20987;-72
2022/01/11 07:27:01;;;;;;;72.42;43.02;;;;;;;-0.87;75.29;102069.28;2855243;82;21047;-71
2022/01/11 07:31:04;;;;;;;77.00;40.88;;;;;;;-0.78;74.98;102074.48;2855621;82;21047;-72
2022/01/11 07:35:07;;;;;;;70.72;42.08;;;;;;;-0.98;74.75;102085.44;2855679;83;21008;-72
2022/01/11 07:39:09;;;;;;;77.47;49.63;;;;;;;-1.34;76.12;102077.33;2855527;83;21059;-72
2022/01/11 07:43:11;;;;;;;172.35;96.87;;;;;;;-1.34;76.12;102077.33;2855276;83;21007;-72
2022/01/11 07:47:13;;;;;;;90.12;54.18;;;;;;;-1.36;76.57;102077.78;2855527;83;21000;-72
2022/01/11 07:51:14;;;;;;;71.60;43.45;;;;;;;-1.27;76.80;102078.19;2855257;83;21059;-72
2022/01/11 07:55:17;;;;;;;77.47;42.83;;;;;;;-1.27;77.12;102078.61;2855527;83;21023;-71
2022/01/11 07:59:19;;;;;;;85.53;49.77;;;;;;;-1.23;77.20;102077.72;2855091;83;21011;-72
2022/01/11 08:03:21;;;;;;;89.62;46.10;;;;;;;-1.17;77.33;102081.63;2855091;83;21050;-71
2022/01/11 08:07:23;;;;;;;192.07;95.35;;;;;;;-1.13;77.24;102086.38;2855047;82;21007;-71
2022/01/11 08:11:24;;;;;;;94.15;52.62;;;;;;;-1.15;77.47;102087.27;2854878;82;21059;-72
2022/01/11 08:15:26;;;;;;;96.37;54.63;;;;;;;-1.09;77.64;102095.94;2855153;83;21007;-72
2022/01/11 08:19:30;;;;;;;87.25;53.08;;;;;;;-1.02;77.66;102111.58;2854582;83;21078;-71
2022/01/11 08:23:33;;;;;;;98.85;61.53;;;;;;;-0.91;77.46;102108.08;2855297;83;21027;-72
2022/01/11 08:27:34;;;;;;;91.65;56.35;;;;;;;-0.82;77.40;102115.85;2854977;83;21058;-71
2022/01/11 08:31:36;;;;;;;94.45;53.60;;;;;;;-0.70;77.45;102115.38;2854784;83;21086;-72
2022/01/11 08:35:38;;;;;;;108.05;59.18;;;;;;;-0.61;76.92;102117.50;2854931;83;21050;-71
2022/01/11 08:39:42;;;;;;;85.57;53.55;;;;;;;-0.61;76.92;102117.50;2855336;83;21031;-72
2022/01/11 08:43:44;;;;;;;78.30;47.45;;;;;;;-0.38;77.09;102137.86;2855300;83;21070;-72
2022/01/11 08:47:47;;;;;;;98.62;54.98;;;;;;;-0.23;76.90;102148.20;2854867;82;21531;-72
2022/01/11 08:51:49;;;;;;;91.92;53.78;;;;;;;-0.20;76.78;102139.02;2855287;82;21019;-72
2022/01/11 08:55:51;;;;;;;97.80;54.40;;;;;;;-0.04;76.73;102137.59;2855362;82;21026;-72
2022/01/11 08:59:53;;;;;;;106.07;65.87;;;;;;;0.11;76.48;102136.17;2855376;83;20996;-72
2022/01/11 09:03:55;;;;;;;93.40;54.48;;;;;;;0.24;76.13;102141.31;2855719;83;21094;-71
2022/01/11 09:07:57;;;;;;;93.65;55.12;;;;;;;0.39;75.91;102133.33;2855974;83;21019;-71
2022/01/11 09:12:06;;;;;;;92.85;57.05;;;;;;;0.46;75.63;102121.02;2855763;83;21038;-71
2022/01/11 09:16:08;;;;;;;84.60;52.25;;;;;;;0.75;75.40;102132.07;2856145;83;21043;-72
2022/01/11 09:20:13;;;;;;;102.35;55.80;;;;;;;0.88;74.95;102131.06;2856035;83;21042;-72
2022/01/11 09:24:19;;;;;;;89.20;52.53;;;;;;;0.98;74.80;102137.06;2856520;83;21087;-71
2022/01/11 09:28:22;;;;;;;94.70;53.02;;;;;;;1.08;74.68;102134.77;2826106;83;21016;-71
2022/01/11 09:32:25;;;;;;;90.70;55.75;;;;;;;1.25;74.97;102131.03;2820026;84;21059;-71
2022/01/11 09:36:28;;;;;;;80.15;49.08;;;;;;;1.42;74.56;102133.45;2819964;84;20959;-71
2022/01/11 09:40:30;;;;;;;101.62;54.55;;;;;;;1.47;73.74;102135.98;2819743;84;21079;-71
2022/01/11 09:44:34;;;;;;;94.67;57.50;;;;;;;1.45;74.24;102139.08;2820138;84;20991;-72
2022/01/11 09:48:36;;;;;;;89.58;51.77;;;;;;;1.56;74.05;102139.34;2820269;84;21019;-71
2022/01/11 09:52:39;;;;;;;92.10;57.03;;;;;;;1.71;73.48;102147.89;2820457;84;21046;-72
2022/01/11 09:56:41;;;;;;;82.05;46.70;;;;;;;1.64;72.86;102148.88;2820322;84;20996;-72
2022/01/11 10:00:43;;;;;;;89.25;51.10;;;;;;;1.48;72.55;102146.93;2819980;84;21709;-71
2022/01/11 10:04:45;;;;;;;79.77;52.38;;;;;;;1.42;72.93;102149.19;2820224;84;21015;-72
2022/01/11 10:08:47;;;;;;;83.72;52.93;;;;;;;1.42;73.66;102143.94;2819986;84;21058;-72
2022/01/11 10:13:03;;;;;;;82.12;51.13;;;;;;;1.31;73.89;102139.27;2819947;84;21038;-71
2022/01/11 10:17:19;;;;;;;86.30;50.35;;;;;;;1.18;74.24;102140.77;2819859;84;21035;-70
2022/01/11 10:21:43;;;;;;;90.50;52.65;;;;;;;1.12;74.38;102146.94;2819960;84;21035;-72
2022/01/11 10:25:49;;;;;;;83.85;48.75;;;;;;;1.10;74.71;102152.65;2818375;83;21559;-71
2022/01/11 10:29:54;;;;;;;96.65;51.37;;;;;;;1.13;75.63;102156.54;2819836;84;20988;-71
2022/01/11 10:34:04;;;;;;;87.30;51.98;;;;;;;1.05;75.83;102157.05;2819764;84;21665;-71
2022/01/11 10:38:06;;;;;;;84.87;51.37;;;;;;;0.95;75.61;102154.14;2820319;84;21015;-70
2022/01/11 10:42:24;;;;;;;76.87;50.63;;;;;;;1.08;75.85;102164.03;2819954;84;21677;-71
2022/01/11 10:46:43;;;;;;;81.28;47.43;;;;;;;1.14;75.41;102165.25;2819969;84;21058;-71
2022/01/11 10:50:53;;;;;;;83.22;52.17;;;;;;;1.32;75.29;102164.17;2819915;84;21024;-71
2022/01/11 10:54:55;;;;;;;78.52;52.33;;;;;;;1.39;74.68;102164.97;2818585;84;21022;-71
2022/01/11 10:59:08;;;;;;;82.40;52.70;;;;;;;1.43;73.92;102165.34;2819959;84;21007;-70
2022/01/11 11:03:19;;;;;;;86.22;52.27;;;;;;;1.40;74.71;102165.39;2820019;84;21071;-71
2022/01/11 11:07:23;;;;;;;82.20;50.45;;;;;;;1.35;74.83;102169.80;2819584;84;23514;-71
2022/01/11 11:11:25;;;;;;;84.80;48.13;;;;;;;1.35;74.27;102169.80;2820023;84;21059;-71
2022/01/11 11:15:35;;;;;;;82.75;47.15;;;;;;;1.37;74.21;102171.53;2819834;84;21016;-71
2022/01/11 11:20:03;;;;;;;84.05;53.28;;;;;;;1.41;73.80;102169.28;2819791;84;20987;-71
2022/01/11 11:24:13;;;;;;;80.10;51.15;;;;;;;1.36;73.75;102170.23;2819854;84;21023;-71
2022/01/11 11:28:15;;;;;;;75.30;46.53;;;;;;;1.31;73.57;102170.30;2819488;83;21028;-71
2022/01/11 11:32:20;;;;;;;87.80;54.15;;;;;;;1.27;74.18;102169.89;2819884;84;21047;-71
2022/01/11 11:36:22;;;;;;;90.85;55.03;;;;;;;1.48;74.31;102174.47;2819965;84;21003;-70
2022/01/11 11:40:27;;;;;;;90.80;51.13;;;;;;;1.62;73.99;102166.41;2819911;84;21021;-70
2022/01/11 11:44:31;;;;;;;77.37;50.67;;;;;;;1.65;72.93;102170.29;2819909;84;21008;-71
2022/01/11 11:48:33;;;;;;;79.37;51.00;;;;;;;1.66;73.43;102166.31;2819484;84;21086;-71
2022/01/11 11:52:42;;;;;;;82.65;51.40;;;;;;;1.56;73.31;102157.70;2819901;84;21019;-70
2022/01/11 11:56:47;;;;;;;87.62;52.35;;;;;;;1.52;74.32;102156.02;2819786;84;21038;-70
2022/01/11 12:00:51;;;;;;;80.55;49.83;;;;;;;1.54;73.96;102154.24;2819894;84;21079;-71
2022/01/11 12:04:54;;;;;;;80.97;50.58;;;;;;;1.64;73.91;102146.26;2819730;84;21102;-71
2022/01/11 12:09:09;;;;;;;88.12;48.45;;;;;;;1.71;74.49;102148.77;2820107;84;21012;-71
2022/01/11 12:13:28;;;;;;;89.47;52.08;;;;;;;1.62;73.13;102148.04;2819569;84;21049;-71
2022/01/11 12:17:30;;;;;;;89.45;55.23;;;;;;;1.63;73.81;102149.77;2819510;84;21050;-71
2022/01/11 12:21:55;;;;;;;83.92;54.83;;;;;;;1.80;74.04;102153.02;2820160;84;21052;-70
2022/01/11 12:26:08;;;;;;;79.42;53.33;;;;;;;1.88;73.11;102146.77;2819611;83;20995;-70
2022/01/11 12:30:10;;;;;;;86.47;55.03;;;;;;;1.93;73.56;102145.81;2856319;83;21082;-71
2022/01/11 12:34:13;;;;;;;88.85;53.33;;;;;;;1.84;73.31;102141.58;2828494;83;20995;-71
2022/01/11 12:38:15;;;;;;;91.30;56.42;;;;;;;1.93;73.46;102137.94;2856422;83;21078;-71
2022/01/11 12:42:28;;;;;;;90.42;58.35;;;;;;;1.92;73.62;102139.27;2856070;83;21015;-71
2022/01/11 12:46:35;;;;;;;97.62;54.40;;;;;;;1.95;73.41;102132.65;2856367;83;21019;-70
2022/01/11 12:51:01;;;;;;;103.85;59.93;;;;;;;1.87;73.05;102138.05;2848955;83;21023;-70
2022/01/11 12:55:05;;;;;;;93.00;59.88;;;;;;;1.95;73.38;102132.65;2856180;83;21019;-71
2022/01/11 12:59:08;;;;;;;94.67;60.05;;;;;;;2.08;73.21;102126.32;2856735;83;21030;-71
2022/01/11 13:03:09;;;;;;;98.17;55.65;;;;;;;2.10;72.21;102132.41;2856836;83;21019;-71
2022/01/11 13:07:20;;;;;;;97.27;56.68;;;;;;;2.10;72.58;102132.41;2856538;83;21043;-71
2022/01/11 13:11:22;;;;;;;77.15;52.55;;;;;;;2.10;73.04;102133.72;2856626;83;20991;-72
2022/01/11 13:15:34;;;;;;;92.65;57.50;;;;;;;2.09;72.81;102134.61;2856884;83;21039;-71
2022/01/11 13:19:42;;;;;;;84.30;51.80;;;;;;;1.99;72.52;102131.73;2856729;83;21027;-72
2022/01/11 13:23:47;;;;;;;89.22;54.95;;;;;;;2.09;73.03;102128.05;2855743;83;21063;-71
2022/01/11 13:27:53;;;;;;;87.00;52.43;;;;;;;2.14;72.88;102122.27;2855034;83;21571;-71
2022/01/11 13:31:55;;;;;;;103.40;52.38;;;;;;;2.21;72.80;102115.16;2886771;81;20979;-71
2022/01/11 13:36:13;;;;;;;83.52;49.45;;;;;;;2.28;72.86;102125.11;2865451;82;20983;-71
2022/01/11 13:40:16;;;;;;;87.88;54.48;;;;;;;2.34;72.89;102123.68;2904460;81;20990;-71
2022/01/11 13:44:22;;;;;;;72.42;47.58;;;;;;;2.45;72.48;102125.27;2904960;82;20973;-71
2022/01/11 13:48:23;;;;;;;77.57;48.53;;;;;;;2.38;71.92;102124.07;2905013;81;20993;-71
2022/01/11 13:52:26;;;;;;;82.65;49.35;;;;;;;2.28;72.15;102117.23;2904552;81;21688;-71
2022/01/11 13:56:37;;;;;;;89.05;50.43;;;;;;;2.32;72.56;102124.16;2904611;81;21007;-71
2022/01/11 14:00:39;;;;;;;73.57;47.30;;;;;;;2.37;72.57;102126.28;2904427;82;20975;-70
2022/01/11 14:04:51;;;;;;;79.03;43.68;;;;;;;2.50;72.57;102128.23;2904936;80;20987;-72
2022/01/11 14:08:55;;;;;;;84.37;46.10;;;;;;;2.62;72.17;102127.13;2900849;81;20996;-76
2022/01/11 14:12:57;;;;;;;85.75;45.92;;;;;;;2.73;72.19;102132.18;2900951;80;21020;-72
2022/01/11 14:17:00;;;;;;;67.58;46.08;;;;;;;2.83;71.85;102127.61;2901250;81;21052;-71
2022/01/11 14:21:11;;;;;;;66.62;43.20;;;;;;;2.91;71.13;102129.63;2892144;80;21052;-72
2022/01/11 14:25:33;;;;;;;68.87;44.20;;;;;;;2.93;70.68;102129.61;2902220;82;21000;-72
2022/01/11 14:29:35;;;;;;;74.90;43.10;;;;;;;2.93;70.21;102138.81;2905525;80;21016;-72
2022/01/11 14:33:38;;;;;;;72.20;45.08;;;;;;;2.97;69.57;102136.09;2888562;80;21474;-72
2022/01/11 14:37:39;;;;;;;69.15;42.30;;;;;;;2.96;69.02;102138.31;2879084;81;21033;-72
2022/01/11 14:41:48;;;;;;;60.20;38.23;;;;;;;2.99;69.31;102144.81;2884663;82;20996;-72
2022/01/11 14:46:09;;;;;;;61.37;37.45;;;;;;;3.07;68.93;102149.04;2900334;82;21033;-71
2022/01/11 14:50:15;;;;;;;60.08;38.67;;;;;;;3.08;68.43;102141.56;2908833;81;21033;-71
2022/01/11 14:54:22;;;;;;;;;;;;;;;3.05;68.10;102136.38;2911862;82;21005;-71
2022/01/11 14:58:38;;;;;;;57.35;34.55;;;;;;;3.01;67.98;102138.19;2909242;82;20109;-71
2022/01/11 15:02:41;;;;;;;56.95;36.70;;;;;;;2.95;68.28;102143.16;2909318;81;21605;-72
2022/01/11 15:06:46;;;;;;;56.68;33.35;;;;;;;2.92;68.70;102145.81;2909266;80;21104;-71
2022/01/11 15:10:48;;;;;;;53.87;33.55;;;;;;;2.86;69.00;102138.06;2909662;81;21021;-71
2022/01/11 15:14:56;;;;;;;47.35;29.57;;;;;;;2.81;68.97;102141.23;2909360;80;21052;-71
2022/01/11 15:18:58;;;;;;;52.83;32.40;;;;;;;2.75;69.14;102140.90;2909277;81;21017;-71
2022/01/11 15:22:59;;;;;;;53.00;31.10;;;;;;;2.64;69.32;102146.36;2908814;81;21028;-70
2022/01/11 15:27:02;;;;;;;52.45;31.65;;;;;;;2.52;69.43;102149.20;2908604;81;21076;-71
2022/01/11 15:31:04;;;;;;;56.68;34.27;;;;;;;2.40;69.25;102153.80;2904279;81;21011;-71
2022/01/11 15:35:07;;;;;;;53.35;32.65;;;;;;;2.24;68.58;102158.89;2904430;82;21008;-71
2022/01/11 15:39:10;;;;;;;59.55;34.25;;;;;;;2.09;68.05;102154.30;2904175;81;21031;-71
2022/01/11 15:43:12;;;;;;;51.98;31.80;;;;;;;1.92;68.17;102154.58;2903811;81;21003;-71
2022/01/11 15:47:14;;;;;;;61.20;38.25;;;;;;;1.82;68.32;102157.80;2896282;80;21048;-72
2022/01/11 15:51:18;;;;;;;72.27;44.45;;;;;;;1.76;68.57;102159.64;2880772;81;21037;-73
2022/01/11 15:55:20;;;;;;;94.52;52.20;;;;;;;1.72;68.96;102158.80;2876924;82;20997;-73
2022/01/11 15:59:22;;;;;;;97.45;58.08;;;;;;;1.67;69.24;102163.27;2886804;82;21071;-72
2022/01/11 16:03:24;;;;;;;135.48;77.92;;;;;;;1.67;69.22;102153.65;2865680;81;21013;-72
2022/01/11 16:07:25;;;;;;;215.22;118.57;;;;;;;1.63;69.35;102157.18;2880505;80;21036;-72
2022/01/11 16:11:28;;;;;;;187.00;111.62;;;;;;;1.61;69.59;102160.73;2875831;82;21006;-72
2022/01/11 16:15:30;;;;;;;100.12;61.95;;;;;;;1.59;69.84;102165.14;2887734;82;20978;-72
2022/01/11 16:19:32;;;;;;;221.13;109.32;;;;;;;1.55;69.72;102149.88;2883595;82;21103;-72
2022/01/11 16:23:34;;;;;;;191.03;106.85;;;;;;;1.50;69.58;102154.33;2883180;82;21081;-72
2022/01/11 16:27:36;;;;;;;197.55;116.95;;;;;;;1.18;70.67;102155.18;2891217;80;21067;-72
2022/01/11 16:31:39;;;;;;;205.57;112.55;;;;;;;0.86;71.51;102157.72;2896051;80;21013;-72
2022/01/11 16:35:45;;;;;;;150.93;85.92;;;;;;;0.63;72.73;102166.70;2879556;81;21075;-72
2022/01/11 16:39:56;;;;;;;148.78;84.75;;;;;;;0.34;73.95;102176.98;2912469;81;21021;-72
2022/01/11 16:43:50;;;;;;;196.60;118.05;;;;;;;0.19;74.28;102174.49;2897141;81;21017;-72
2022/01/11 16:47:51;;;;;;;162.37;89.80;;;;;;;0.16;74.48;102170.59;2873835;81;21060;-69
2022/01/11 16:51:53;;;;;;;134.82;74.47;;;;;;;0.24;73.84;102166.19;2860143;83;20997;-69
2022/01/11 16:55:56;;;;;;;111.30;71.22;;;;;;;0.28;73.67;102167.43;2859983;83;21012;-70
2022/01/11 16:59:59;;;;;;;104.00;66.40;;;;;;;0.25;74.18;102166.16;2872555;81;21044;-70
2022/01/11 17:04:01;;;;;;;112.10;65.25;;;;;;;0.28;73.95;102162.66;2893730;81;21024;-71
2022/01/11 17:08:03;;;;;;;113.90;68.37;;;;;;;0.34;73.92;102171.75;2879129;81;20965;-70
2022/01/11 17:12:07;;;;;;;145.57;85.75;;;;;;;0.44;73.43;102174.30;2860670;81;21024;-71
2022/01/11 17:16:08;;;;;;;113.57;66.10;;;;;;;0.56;73.58;102174.17;2886094;81;21083;-71
2022/01/11 17:20:13;;;;;;;91.05;57.88;;;;;;;0.62;72.91;102178.06;2893563;81;21094;-71
2022/01/11 17:24:15;;;;;;;132.35;81.20;;;;;;;0.59;73.17;102188.58;2908883;81;21104;-71
2022/01/11 17:28:19;;;;;;;171.25;94.03;;;;;;;0.55;72.82;102186.41;2888860;80;21079;-71
2022/01/11 17:32:22;;;;;;;128.62;71.90;;;;;;;0.56;72.59;102191.20;2907214;81;21032;-71
2022/01/11 17:36:23;;;;;;;143.40;78.45;;;;;;;0.55;72.43;102185.53;2907352;81;21037;-71
2022/01/11 17:40:25;;;;;;;123.20;78.90;;;;;;;0.53;72.13;102193.42;2899394;81;21054;-71
2022/01/11 17:44:27;;;;;;;141.82;79.82;;;;;;;0.52;72.06;102184.25;2874401;82;21064;-70
2022/01/11 17:48:29;;;;;;;135.72;78.40;;;;;;;0.45;71.85;102186.06;2855512;82;21001;-71
2022/01/11 17:52:31;;;;;;;128.05;76.25;;;;;;;0.41;72.27;102190.90;2860829;82;21009;-71
2022/01/11 17:56:34;;;;;;;124.55;75.50;;;;;;;0.35;71.44;102189.20;2890417;82;21001;-71
2022/01/11 18:00:36;;;;;;;115.37;67.92;;;;;;;0.31;71.31;102188.80;2906820;81;21044;-72
2022/01/11 18:04:38;;;;;;;117.75;63.60;;;;;;;0.29;71.36;102201.04;2905563;82;21028;-73
2022/01/11 18:08:42;;;;;;;116.55;66.33;;;;;;;0.26;71.50;102211.53;2907793;82;20997;-71
2022/01/11 18:12:43;;;;;;;104.20;65.32;;;;;;;0.22;71.31;102220.30;2907780;81;20990;-70
2022/01/11 18:16:49;;;;;;;103.30;63.87;;;;;;;0.17;71.05;102222.95;2907918;82;21052;-70
2022/01/11 18:20:49;;;;;;;94.72;54.00;;;;;;;0.12;70.67;102224.73;2907847;81;21067;-70
2022/01/11 18:24:51;;;;;;;90.47;53.78;;;;;;;0.08;71.22;102227.80;2907964;82;21001;-70
2022/01/11 18:28:52;;;;;;;98.78;56.20;;;;;;;0.06;71.30;102229.56;2906139;81;21076;-70
2022/01/11 18:32:54;;;;;;;85.65;53.23;;;;;;;0.04;71.26;102235.25;2903089;82;21052;-70
2022/01/11 18:36:56;;;;;;;104.90;57.83;;;;;;;0.02;71.46;102233.09;2903204;81;21474;-70
2022/01/11 18:40:58;;;;;;;77.12;51.75;;;;;;;-0.04;72.25;102240.53;2903182;81;21037;-69